x

West Tampa - 112 Nm Wnw Of Tampa, Fl (42036) Wave Buoy

2:50pm - Mon 6th Jul 2015 All times are EDT. -4 hours from GMT.

  • Sig Wave height 2.0ft
  • Swell Direction
  • Peak Period 6s
  • Average Period 5s
  • Wind
    11mph, 13mph gusts
  • Sea Temp 86°f
  • Air Temp 85°f
  • Sea Pressure 1021.8mb
  • West Tampa  - 112 Nm Wnw Of Tampa, Fl
  • West Tampa  - 112 Nm Wnw Of Tampa, Fl

More Historic Weather Station data

Upgrade to MSW Pro to gain access to the past 30 days of data for over 8000 Wavebouys and Weather Stations around the globe.

Join Pro

Comparision Forecast

View Surf forecast
   
Mon 07/06 2:50pm 2ft 6s 5s 11 13 mph 1021.8mb 86f 85f
1:50pm 2ft 5s 5s 9 11 mph 1022.3mb 86f 85f
12:50pm 2ft 5s 5s 9 11 mph 1022.3mb 86f 85f
11:50am 2ft 4s 5s 9
mph
1022.2mb 86f 85f
10:50am 1.6ft 4s 4s 7 9 mph 1022.2mb 86f 85f
9:50am 1.3ft 9s 5s 7 9 mph 1021.9mb 85f 85f
8:50am 1.3ft 9s 5s 7 11 mph 1021.3mb 85f 85f
7:50am 1.3ft 9s 5s 7 9 mph 1020.8mb 85f 84f
6:50am 1.3ft 8s 4s 4 7 mph 1020.1mb 85f 84f
5:50am 1.3ft 10s 4s 7 9 mph 1019.5mb 85f 84f
4:50am 1.3ft 5s 4s 4 7 mph 1019.7mb 85f 84f
3:50am 1.6ft 5s 5s  -  2 mph 1020.3mb 85f 83f
2:50am 2ft 5s 4s 2 4 mph 1020.8mb 85f 83f
1:50am 2ft 6s 5s 4
mph
1021.2mb 85f 83f
12:50am 2ft 5s 4s 4
mph
1021.3mb 85f 83f
Sun 07/05 11:50pm 2ft 5s 4s 7 9 mph 1021.8mb 85f 83f
10:50pm 2.5ft 5s 4s 9 11 mph 1021.5mb 85f 83f
9:50pm 2.5ft 5s 4s 11 13 mph 1020.8mb 85f 83f
8:50pm 2.5ft 5s 4s 13 18 mph 1020.3mb 85f 82f
7:50pm 3ft 5s 4s 9 11 mph 1018.9mb 85f 83f
6:50pm 3ft 5s 4s 13 16 mph 1019mb 86f 81f
5:50pm 3.5ft 5s 4s 9 13 mph 1020.6mb 86f 81f
4:50pm 4ft 4s 4s 20 25 mph 1021.6mb 86f 80f
3:50pm 2.5ft 3s 3s 27 36 mph 1021.5mb 86f 80f
2:50pm 1.3ft 4s 4s 7 9 mph 1021.9mb 89f 86f
1:50pm 1.6ft 10s 5s 2 4 mph 1021.7mb 88f 86f
12:50pm 1.6ft 10s 5s 4 7 mph 1021.4mb 88f 85f
11:50am 1.3ft 9s 5s 4 7 mph 1021.1mb 87f 85f
10:50am 1.6ft 10s 5s 7
mph
1021.1mb 86f 85f
9:50am 1.3ft 8s 5s 4 7 mph 1021mb 86f 85f
8:50am 1.3ft 9s 5s 4 7 mph 1021.2mb 86f 85f
7:50am 1.3ft 8s 5s 4 7 mph 1020.7mb 86f 85f
6:50am 1.3ft 7s 5s 4 7 mph 1020.2mb 86f 85f
5:50am 1.3ft 8s 5s 7 9 mph 1019.7mb 86f 85f
4:50am 1.3ft 6s 5s 11 13 mph 1018.8mb 86f 85f
3:50am 1.3ft 8s 5s 7 9 mph 1018.9mb 86f 84f
2:50am 1.3ft 4s 5s 2 4 mph 1019.4mb 86f 84f
1:50am 1.3ft 4s 5s 2
mph
1019.9mb 86f 85f
12:50am 1.3ft 6s 5s  -  2 mph 1020.4mb 86f 85f
Sat 07/04 11:50pm 1.3ft 4s 5s  -  2 mph 1020mb 86f 85f
10:50pm 1.3ft 4s 4s  -  2 mph 1020.2mb 86f 85f
9:50pm 1.3ft 4s 4s 4
mph
1020.1mb 86f 85f
8:50pm 1.3ft 8s 4s 4 7 mph 1019.7mb 87f 85f
7:50pm 1.3ft 4s 4s 4 7 mph 1018.7mb 87f 86f
6:50pm 1.6ft 5s 4s 4 7 mph 1018.4mb 87f 86f
5:50pm 1.6ft 5s 4s 7
mph
1018.2mb 87f 86f
4:50pm 1.6ft 5s 4s 7
mph
1018.3mb 87f 86f
3:50pm 1.6ft 5s 4s 7 9 mph 1018.7mb 87f 86f
2:50pm 1.6ft 5s 4s 4 7 mph 1019.2mb 87f 85f
1:50pm 1.6ft 4s 4s 4 7 mph 1019.9mb 87f 85f
12:50pm 1.6ft 4s 4s 7 9 mph 1020.1mb 86f 85f
11:50am 1.6ft 4s 4s 7 9 mph 1020.3mb 86f 85f
10:50am 1.6ft 5s 4s 4 7 mph 1020.2mb 86f 85f
9:50am 1.6ft 8s 4s 7 9 mph 1019.9mb 86f 85f
8:50am 1.3ft 8s 4s 4 7 mph 1019.3mb 85f 85f
7:50am 1.3ft 8s 5s 7
mph
1018.8mb 85f 85f
6:50am 1.3ft 9s 5s 4 7 mph 1018.4mb 85f 85f
5:50am 1.3ft 8s 5s 7 9 mph 1018.1mb 85f 85f
4:50am 1.3ft 8s 5s 7 9 mph 1017.8mb 85f 85f
3:50am 1.3ft 8s 5s 9
mph
1017.5mb 86f 85f
2:50am 1.3ft 4s 5s 9
mph
1017.9mb 86f 85f
1:50am 1.3ft 8s 5s 7 9 mph 1018.6mb 86f 85f
12:50am 1.3ft 7s 5s 7
mph
1019mb 86f 85f
Fri 07/03 11:50pm 1.3ft 6s 4s 4
mph
1019.3mb 87f 85f
10:50pm 1.6ft 7s 4s  -  2 mph 1019.2mb 87f 85f
9:50pm 1.3ft 4s 4s 2
mph
1018.7mb 88f 85f
8:50pm 1.6ft 4s 4s 2 4 mph 1018.2mb 88f 85f
7:50pm 1.6ft 4s 4s 2 4 mph 1018.1mb 88f 86f
6:50pm 1.6ft 5s 4s 4 7 mph 1017.8mb 89f 87f
5:50pm 1.6ft 4s 5s 2 4 mph 1017.9mb 89f 86f
4:50pm 1.3ft 7s 5s 2 4 mph 1017.9mb 89f 86f
3:50pm 1.3ft 7s 4s 2 4 mph 1018.5mb 89f 86f
2:50pm 1.3ft 7s 4s 2 4 mph 1019mb 88f 85f
1:50pm 1.3ft 6s 4s 2 4 mph 1019.2mb 87f 85f
12:50pm 1.3ft 8s 4s 4 7 mph 1019.4mb 87f 85f
11:50am 1.3ft 5s 4s 4 7 mph 1019.2mb 86f 85f
10:50am 1.6ft 7s 5s 4 7 mph 1019mb 86f 85f
9:50am 1.6ft 8s 5s 4 7 mph 1019mb 85f 85f
8:50am 1.6ft 9s 5s 7
mph
1018.9mb 85f 85f
7:50am 1.6ft 8s 5s 9 11 mph 1018.5mb 85f 85f
6:50am 1.6ft 8s 5s 7 9 mph 1018.2mb 85f 84f
5:50am 1.6ft 5s 5s 9 11 mph 1017.8mb 85f 84f
4:50am 1.6ft 5s 5s 9 11 mph 1017.8mb 85f 84f
3:50am 1.6ft 6s 5s 9 11 mph 1017.8mb 85f 84f
2:50am 2ft 6s 5s 11
mph
1018mb 85f 85f
1:50am 2ft 5s 5s 9 11 mph 1018.6mb 86f 85f
12:50am 2.5ft 6s 5s 9 11 mph 1019.1mb 86f 85f
Thu 07/02 11:50pm 2.5ft 6s 5s 9 11 mph 1019mb 86f 85f
10:50pm 2.5ft 6s 5s 4 7 mph 1018.9mb 86f 84f
9:50pm 2.5ft 5s 5s 7 9 mph 1018.5mb 86f 84f
8:50pm 2ft 4s 5s 2 4 mph 1018.3mb 86f 84f